»·PEaware :: KFA5922 KSFO-KPSP

KFA5922 :: KSFO-KPSP

FLIGHT INFORMATION

Flight Status: Arrived
Operator:
Kingfisher Airlines
More flights by this operator :: More flights under this callsign
Pilot: Max W. (2591)
Aircraft: BOEING 727-200
(B722)
More flights by this aircraft type
Origin: KSFO San Francisco Intl
United States
Destination: KPSP Palm Springs Intl
United States
More flights between these airports :: More routes between these airports
Route: +EHF V197 PMD V137 PSP
File this flight plan on PilotEdge
Remarks: UNABLE OFFSHORE ROUTE DUE TO OPS LIMS
Altitude:
(Current/Filed)
35,000ft
Speed:
(Current/Filed)
450kts
Departed: 07-Sep-18 05:26 PM
Arrived: 07-Sep-18 06:35 PM
Distance/Time
Traveled:
366nm/1:09
Distance/Time
To Go:
Arrived

Flight Plot

Page will automatically refresh every two minutes.

Flight plan parsing failed; only flown route is shown


Map Options




Map Legend


Flown Route
Filed Route
Departure Airport
Arrival Airport
Navaid (VOR, NDB)
Fix

Horizontal Profiles

Position Reports

Time Latitude Longitude Heading Altitude Ground
Speed
07-Sep-18 17:19 37.634957 -122.390021 26 24ft 0kts
07-Sep-18 17:20 37.634957 -122.390021 26 24ft 0kts
07-Sep-18 17:21 37.634957 -122.390021 26 24ft 0kts
07-Sep-18 17:22 37.634957 -122.390021 26 24ft 0kts
07-Sep-18 17:23 37.634957 -122.390021 26 24ft 0kts
07-Sep-18 17:24 37.634957 -122.390021 26 24ft 0kts
07-Sep-18 17:25 37.634957 -122.390021 26 24ft 0kts
07-Sep-18 17:26 37.634305 -122.389804 228 24ft 32kts
07-Sep-18 17:27 37.627567 -122.386867 119 24ft 61kts
07-Sep-18 17:28 37.622500 -122.374866 116 24ft 6kts
07-Sep-18 17:29 37.622493 -122.374848 116 24ft 0kts
07-Sep-18 17:30 37.619965 -122.368776 119 24ft 49kts
07-Sep-18 17:32 37.613851 -122.357946 295 24ft 27kts
07-Sep-18 17:33 37.624148 -122.382139 298 936ft 185kts
07-Sep-18 17:34 37.657604 -122.440835 312 3150ft 227kts
07-Sep-18 17:35 37.684269 -122.513915 267 6701ft 265kts
07-Sep-18 17:36 37.632432 -122.574520 188 10038ft 306kts
07-Sep-18 17:37 37.545200 -122.545705 156 12728ft 347kts
07-Sep-18 17:38 37.465414 -122.475519 152 15537ft 360kts
07-Sep-18 17:39 37.384299 -122.398823 144 17859ft 380kts
07-Sep-18 17:40 37.303983 -122.311384 143 19920ft 395kts
07-Sep-18 17:41 37.222257 -122.216296 140 21923ft 410kts
07-Sep-18 17:42 37.136813 -122.120075 142 23782ft 422kts
07-Sep-18 17:43 37.048004 -122.021969 141 25421ft 435kts
07-Sep-18 17:44 36.976815 -121.899543 131 26781ft 446kts
07-Sep-18 17:45 36.903835 -121.774207 125 28139ft 456kts
07-Sep-18 17:46 36.834861 -121.645462 124 29309ft 465kts
07-Sep-18 17:47 36.764290 -121.508503 124 30381ft 473kts
07-Sep-18 17:48 36.693148 -121.369977 124 31365ft 481kts
07-Sep-18 17:49 36.623897 -121.235757 125 32190ft 487kts
07-Sep-18 17:50 36.553047 -121.098894 124 32937ft 493kts
07-Sep-18 17:51 36.477959 -120.954173 124 33023ft 509kts
07-Sep-18 17:52 36.401175 -120.806775 124 32986ft 512kts
07-Sep-18 17:53 36.324407 -120.660086 124 32978ft 509kts
07-Sep-18 17:54 36.248005 -120.514698 124 32976ft 508kts
07-Sep-18 17:55 36.171381 -120.369548 124 32977ft 510kts
07-Sep-18 17:56 36.100216 -120.234938 125 32962ft 508kts
07-Sep-18 17:57 36.024026 -120.092106 125 32962ft 505kts
07-Sep-18 17:58 35.948030 -119.949841 125 32964ft 502kts
07-Sep-18 17:59 35.877353 -119.819327 125 32970ft 500kts
07-Sep-18 18:00 35.804797 -119.686096 125 32971ft 499kts
07-Sep-18 18:01 35.731240 -119.550215 125 32966ft 498kts
07-Sep-18 18:02 35.654865 -119.409672 125 32966ft 499kts
07-Sep-18 18:03 35.581228 -119.273792 125 32961ft 499kts
07-Sep-18 18:04 35.508363 -119.141045 128 32958ft 497kts
07-Sep-18 18:05 35.413323 -119.024960 138 32972ft 491kts
07-Sep-18 18:06 35.319485 -118.910041 136 32973ft 493kts
07-Sep-18 18:07 35.224658 -118.792206 135 32974ft 494kts
07-Sep-18 18:08 35.130237 -118.675066 135 33114ft 485kts
07-Sep-18 18:09 35.038156 -118.561112 135 33190ft 468kts
07-Sep-18 18:10 34.948463 -118.450692 137 33160ft 461kts
07-Sep-18 18:11 34.835896 -118.403607 170 31984ft 457kts
07-Sep-18 18:12 34.730874 -118.380971 170 30860ft 444kts
07-Sep-18 18:13 34.615273 -118.356778 170 29440ft 435kts
07-Sep-18 18:14 34.524982 -118.288507 113 28017ft 421kts
07-Sep-18 18:15 34.512996 -118.158142 89 26719ft 406kts
07-Sep-18 18:16 34.509248 -118.024830 89 26003ft 382kts
07-Sep-18 18:17 34.502867 -117.898858 106 24860ft 378kts
07-Sep-18 18:18 34.432525 -117.807597 135 24019ft 367kts
07-Sep-18 18:19 34.359321 -117.736120 129 24018ft 321kts
07-Sep-18 18:20 34.346196 -117.632400 87 20405ft 338kts
07-Sep-18 18:21 34.347493 -117.519495 90 18069ft 341kts
07-Sep-18 18:22 34.323589 -117.406854 110 18085ft 359kts
07-Sep-18 18:23 34.281254 -117.301855 116 18078ft 351kts
07-Sep-18 18:24 34.238960 -117.208679 118 14998ft 314kts
07-Sep-18 18:25 34.191907 -117.107599 118 14991ft 362kts
07-Sep-18 18:26 34.143737 -117.005018 118 14986ft 339kts
07-Sep-18 18:27 34.091302 -116.923943 158 13354ft 307kts
07-Sep-18 18:28 34.014418 -116.896903 162 11103ft 253kts
07-Sep-18 18:29 33.976921 -116.833126 112 8469ft 227kts
07-Sep-18 18:30 33.953840 -116.769435 112 7132ft 189kts
07-Sep-18 18:31 33.933663 -116.714270 112 5352ft 164kts
07-Sep-18 18:32 33.916636 -116.665484 104 4318ft 162kts
07-Sep-18 18:33 33.909183 -116.613488 104 3309ft 164kts
07-Sep-18 18:34 33.892563 -116.564204 130 2582ft 156kts
07-Sep-18 18:35 33.857681 -116.532518 142 1128ft 152kts
07-Sep-18 18:36 33.826836 -116.505123 143 489ft 88kts
07-Sep-18 18:37 33.823762 -116.500980 49 489ft 1kts
07-Sep-18 18:38 33.825613 -116.500170 326 489ft 14kts

Navigation Log

Ident Type
Flight plan parsing failed, navigation log unavailable